Time;durP1;ratioP1;P1;durP2;ratioP2;P2;SDS_P1;SDS_P2;PMS_P1;PMS_P2;Temp;Humidity;BMP_temperature;BMP_pressure;BME280_temperature;BME280_humidity;BME280_pressure;Samples;Min_cycle;Max_cycle;Signal;HPM_P1;HPM_P2
2022/05/21 00:01:02;;;;;;;4.07;1.47;;;13.10;99.90;;;;;;5036400;28;20982;-87
2022/05/21 00:03:28;;;;;;;5.43;2.07;;;13.20;99.90;;;;;;5057157;28;20518;-88
2022/05/21 00:05:53;;;;;;;5.13;1.30;;;13.10;99.90;;;;;;5056921;28;20497;-95
2022/05/21 00:08:21;;;;;;;4.13;1.87;;;13.10;99.90;;;;;;5057746;28;20183;-92
2022/05/21 00:10:47;;;;;;;6.70;1.47;;;13.00;99.90;;;;;;5040111;28;20537;-91
2022/05/21 00:13:12;;;;;;;5.27;1.20;;;12.90;99.90;;;;;;5039448;28;20430;-90
2022/05/21 00:15:38;;;;;;;4.10;1.80;;;12.80;99.90;;;;;;5037997;28;20176;-87
2022/05/21 00:18:05;;;;;;;3.17;0.87;;;12.80;99.90;;;;;;5056612;28;20175;-90
2022/05/21 00:20:49;;;;;;;3.87;0.50;;;12.70;99.90;;;;;;5055206;28;20171;-88
2022/05/21 00:23:30;;;;;;;3.73;1.27;;;12.70;99.90;;;;;;5038125;28;20482;-92
2022/05/21 00:26:15;;;;;;;4.33;0.97;;;12.70;99.90;;;;;;5039435;28;20412;-95
2022/05/21 00:28:43;;;;;;;10.03;1.10;;;12.60;99.90;;;;;;5026877;28;20414;-87
2022/05/21 00:31:10;;;;;;;7.60;1.30;;;12.50;99.90;;;;;;5051366;28;20426;-92
2022/05/21 00:33:37;;;;;;;3.20;0.80;;;12.50;99.90;;;;;;5022461;28;20426;-90
2022/05/21 00:36:04;;;;;;;2.80;0.63;;;12.50;99.90;;;;;;5048752;28;20946;-88
2022/05/21 00:38:30;;;;;;;4.73;1.00;;;12.50;99.90;;;;;;5030224;28;20418;-87
2022/05/21 00:40:56;;;;;;;6.60;1.23;;;12.40;99.90;;;;;;5046204;28;20493;-92
2022/05/21 00:43:33;;;;;;;4.50;1.23;;;12.40;99.90;;;;;;5051827;28;20840;-92
2022/05/21 00:45:59;;;;;;;4.30;0.93;;;12.30;99.90;;;;;;5049007;28;20179;-90
2022/05/21 00:48:25;;;;;;;2.03;1.17;;;12.20;99.90;;;;;;5047581;28;20433;-92
2022/05/21 00:50:52;;;;;;;4.63;2.37;;;12.20;99.90;;;;;;5060699;28;20946;-91
2022/05/21 00:53:18;;;;;;;3.10;1.10;;;12.00;99.90;;;;;;5038670;28;20435;-90
2022/05/21 00:55:44;;;;;;;4.10;0.80;;;12.00;99.90;;;;;;5051560;28;20454;-90
2022/05/21 01:01:00;;;;;;;4.37;1.47;;;12.10;99.90;;;;;;5044813;28;20270;-93
2022/05/21 01:03:29;;;;;;;3.77;1.40;;;12.00;99.90;;;;;;5036273;28;20992;-93
2022/05/21 01:05:57;;;;;;;5.27;0.90;;;12.00;99.90;;;;;;5029211;28;20995;-91
2022/05/21 01:08:22;;;;;;;3.07;1.20;;;11.90;99.90;;;;;;5056090;28;20418;-89
2022/05/21 01:10:53;;;;;;;3.50;1.87;;;11.90;99.90;;;;;;5028528;28;20456;-86
2022/05/21 01:13:21;;;;;;;5.20;1.83;;;11.90;99.90;;;;;;5027563;28;20532;-92
2022/05/21 01:15:49;;;;;;;4.30;1.83;;;11.90;99.90;;;;;;5037758;28;20481;-93
2022/05/21 01:18:14;;;;;;;6.30;2.60;;;11.90;99.90;;;;;;5018852;28;20426;-87
2022/05/21 01:20:44;;;;;;;4.33;1.37;;;11.80;99.90;;;;;;5035678;28;21032;-86
2022/05/21 01:23:10;;;;;;;3.70;1.63;;;11.80;99.90;;;;;;5017391;28;20266;-87
2022/05/21 01:25:38;;;;;;;5.77;2.00;;;11.80;99.90;;;;;;5035924;28;20514;-87
2022/05/21 01:28:13;;;;;;;6.07;1.90;;;11.70;99.90;;;;;;5018531;28;20925;-87
2022/05/21 01:30:49;;;;;;;6.73;2.20;;;11.70;99.90;;;;;;5017716;28;20416;-92
2022/05/21 01:33:17;;;;;;;4.70;2.10;;;11.80;99.90;;;;;;5035323;28;20404;-88
2022/05/21 01:35:44;;;;;;;3.87;1.70;;;11.70;99.90;;;;;;5034129;28;20428;-92
2022/05/21 01:38:11;;;;;;;4.27;1.70;;;11.80;99.90;;;;;;5034673;28;20474;-92
2022/05/21 01:40:37;;;;;;;3.60;2.40;;;11.70;99.90;;;;;;5034590;28;20799;-91
2022/05/21 01:45:51;;;;;;;4.50;1.60;;;11.70;99.90;;;;;;5035393;28;20583;-92
2022/05/21 01:48:19;;;;;;;4.40;1.50;;;11.70;99.90;;;;;;5034678;28;20977;-89
2022/05/21 01:50:45;;;;;;;4.90;2.40;;;11.80;99.90;;;;;;5018055;28;20492;-89
2022/05/21 01:53:11;;;;;;;6.10;2.30;;;11.70;99.90;;;;;;5035013;28;20409;-89
2022/05/21 01:55:38;;;;;;;5.80;2.53;;;11.80;99.90;;;;;;5017709;28;20477;-91
2022/05/21 01:58:03;;;;;;;4.77;2.33;;;11.90;99.90;;;;;;5034511;28;20418;-88
2022/05/21 02:00:29;;;;;;;5.73;1.97;;;12.00;99.90;;;;;;5016700;28;20530;-89
2022/05/21 02:02:54;;;;;;;6.00;2.10;;;12.00;99.90;;;;;;5034730;28;20214;-89
2022/05/21 02:05:20;;;;;;;6.10;2.30;;;12.00;99.90;;;;;;5034721;28;20166;-92
2022/05/21 02:07:45;;;;;;;3.63;1.80;;;12.00;99.90;;;;;;5034345;28;20198;-89
2022/05/21 02:10:11;;;;;;;5.90;2.30;;;12.10;99.90;;;;;;5035481;28;20171;-92
2022/05/21 02:12:37;;;;;;;6.00;2.83;;;12.20;99.90;;;;;;5036407;28;20166;-92
2022/05/21 02:15:03;;;;;;;5.50;2.60;;;12.20;99.90;;;;;;5019544;28;20409;-87
2022/05/21 02:17:28;;;;;;;5.93;2.70;;;12.20;99.90;;;;;;5018398;28;20159;-90
2022/05/21 02:19:54;;;;;;;4.17;2.37;;;12.20;99.90;;;;;;5036108;28;20180;-89
2022/05/21 02:22:19;;;;;;;4.20;1.27;;;12.20;99.90;;;;;;5036093;28;20567;-92
2022/05/21 02:24:45;;;;;;;5.30;2.10;;;12.20;99.90;;;;;;5034207;28;20263;-90
2022/05/21 02:27:12;;;;;;;6.13;2.27;;;12.30;99.90;;;;;;5017986;28;20238;-86
2022/05/21 02:29:38;;;;;;;3.80;2.27;;;12.30;99.90;;;;;;5034758;28;20180;-86
2022/05/21 02:32:04;;;;;;;4.80;1.83;;;12.30;99.90;;;;;;5016108;28;20476;-89
2022/05/21 02:34:30;;;;;;;5.00;2.20;;;12.30;99.90;;;;;;5033885;28;20498;-89
2022/05/21 02:39:41;;;;;;;5.37;2.13;;;12.30;99.90;;;;;;5033989;28;20410;-86
2022/05/21 02:44:55;;;;;;;5.57;2.33;;;12.20;99.90;;;;;;5034179;28;20190;-86
2022/05/21 02:47:20;;;;;;;2.70;1.97;;;12.20;99.90;;;;;;5016139;28;20410;-91
2022/05/21 02:49:45;;;;;;;2.90;1.77;;;12.20;99.90;;;;;;5015694;28;20432;-89
2022/05/21 02:52:11;;;;;;;3.70;2.20;;;12.20;99.90;;;;;;5015888;28;20176;-88
2022/05/21 02:54:37;;;;;;;6.00;1.97;;;12.20;99.90;;;;;;5015899;28;20272;-88
2022/05/21 02:57:03;;;;;;;3.50;2.20;;;12.20;99.90;;;;;;5016020;28;20173;-90
2022/05/21 02:59:29;;;;;;;4.53;1.67;;;12.20;99.90;;;;;;5033985;28;20183;-89
2022/05/21 03:01:55;;;;;;;4.83;2.20;;;12.10;99.90;;;;;;5016124;28;20825;-90
2022/05/21 03:04:20;;;;;;;3.17;1.20;;;12.10;99.90;;;;;;5033014;28;20468;-87
2022/05/21 03:06:46;;;;;;;1.80;1.70;;;12.20;99.90;;;;;;5015602;28;20177;-88
2022/05/21 03:11:55;;;;;;;2.87;1.23;;;12.10;99.90;;;;;;5033313;28;20540;-86
2022/05/21 03:14:21;;;;;;;2.67;1.50;;;12.10;99.90;;;;;;5032936;28;20421;-87
2022/05/21 03:16:46;;;;;;;5.97;1.90;;;12.10;99.90;;;;;;5015382;28;20586;-87
2022/05/21 03:19:12;;;;;;;3.80;2.87;;;12.10;99.90;;;;;;5032649;28;20175;-86
2022/05/21 03:21:38;;;;;;;3.83;1.87;;;12.10;99.90;;;;;;5032991;28;20170;-87
2022/05/21 03:24:04;;;;;;;4.43;2.03;;;12.10;99.90;;;;;;5032943;28;20547;-88
2022/05/21 03:26:30;;;;;;;5.07;2.70;;;12.00;99.90;;;;;;5015369;28;20251;-85
2022/05/21 03:28:55;;;;;;;4.93;2.03;;;12.00;99.90;;;;;;5032855;28;20449;-86
2022/05/21 03:31:21;;;;;;;3.53;1.83;;;12.10;99.90;;;;;;5032759;28;20224;-87
2022/05/21 03:33:46;;;;;;;6.23;2.03;;;12.10;99.90;;;;;;5032544;28;20169;-86
2022/05/21 03:36:12;;;;;;;5.30;2.30;;;12.00;99.90;;;;;;5034958;28;20218;-85
2022/05/21 03:38:37;;;;;;;3.87;1.77;;;12.00;99.90;;;;;;5036660;28;20224;-87
2022/05/21 03:41:03;;;;;;;5.73;1.83;;;12.00;99.90;;;;;;5036527;28;20172;-89
2022/05/21 03:43:28;;;;;;;3.80;1.60;;;12.00;99.90;;;;;;5018805;28;20207;-88
2022/05/21 03:45:54;;;;;;;3.20;1.90;;;12.00;99.90;;;;;;5036614;28;20167;-85
2022/05/21 03:48:19;;;;;;;3.47;2.00;;;12.00;99.90;;;;;;5036477;28;20195;-85
2022/05/21 03:50:45;;;;;;;5.30;1.93;;;12.00;99.90;;;;;;5036274;28;20242;-87
2022/05/21 03:53:13;;;;;;;3.10;2.20;;;12.00;99.90;;;;;;5018913;28;20167;-85
2022/05/21 03:55:39;;;;;;;4.77;1.73;;;12.00;99.90;;;;;;5036492;28;20164;-89
2022/05/21 03:58:05;;;;;;;8.03;2.50;;;12.00;99.90;;;;;;5036612;28;20855;-86
2022/05/21 04:00:33;;;;;;;1.77;1.30;;;12.10;99.90;;;;;;5036462;28;20211;-85
2022/05/21 04:02:59;;;;;;;2.60;1.50;;;12.00;99.90;;;;;;5036175;28;20249;-88
2022/05/21 04:05:25;;;;;;;4.17;2.00;;;12.00;99.90;;;;;;5036056;28;21164;-89
2022/05/21 04:07:50;;;;;;;3.60;1.30;;;12.00;99.90;;;;;;5036108;28;20457;-85
2022/05/21 04:10:17;;;;;;;6.03;2.60;;;12.10;99.90;;;;;;5018548;28;20178;-88
2022/05/21 04:12:43;;;;;;;4.87;1.80;;;12.00;99.90;;;;;;5035926;28;20170;-85
2022/05/21 04:15:10;;;;;;;4.30;1.87;;;12.00;99.90;;;;;;5017789;28;20418;-86
2022/05/21 04:17:36;;;;;;;4.10;2.03;;;12.00;99.90;;;;;;5017708;28;20179;-85
2022/05/21 04:20:03;;;;;;;3.40;2.00;;;12.00;99.90;;;;;;5035170;28;20520;-85
2022/05/21 04:22:29;;;;;;;4.40;1.67;;;12.10;99.90;;;;;;5017765;28;20466;-87
2022/05/21 04:24:54;;;;;;;7.57;2.63;;;12.10;99.90;;;;;;5017828;28;20425;-85
2022/05/21 04:27:20;;;;;;;5.00;2.73;;;12.10;99.90;;;;;;5035462;28;20683;-84
2022/05/21 04:29:45;;;;;;;4.80;3.03;;;12.20;99.90;;;;;;5035569;28;20281;-85
2022/05/21 04:32:11;;;;;;;5.40;3.90;;;12.20;99.90;;;;;;5035965;28;20170;-85
2022/05/21 04:34:36;;;;;;;7.07;4.40;;;12.20;99.90;;;;;;5039527;28;20508;-84
2022/05/21 04:37:02;;;;;;;8.93;6.20;;;12.30;99.90;;;;;;5037306;28;20162;-89
2022/05/21 04:39:27;;;;;;;8.60;6.70;;;12.30;99.90;;;;;;5019755;28;20667;-85
2022/05/21 04:41:53;;;;;;;6.87;6.10;;;12.40;99.90;;;;;;5035600;28;20172;-88
2022/05/21 04:44:18;;;;;;;10.40;6.90;;;12.40;99.90;;;;;;5017931;28;20211;-88
2022/05/21 04:46:44;;;;;;;9.50;7.67;;;12.40;99.90;;;;;;5017627;28;20261;-89
2022/05/21 04:49:09;;;;;;;10.87;8.00;;;12.40;99.90;;;;;;5017738;28;20203;-86
2022/05/21 04:51:37;;;;;;;10.47;8.23;;;12.40;99.90;;;;;;5035473;28;20177;-87
2022/05/21 04:54:03;;;;;;;11.20;7.70;;;12.50;99.90;;;;;;5018102;28;20620;-88
2022/05/21 04:56:31;;;;;;;10.80;8.70;;;12.60;99.90;;;;;;5017958;28;20508;-89
2022/05/21 04:58:56;;;;;;;8.63;7.27;;;12.50;99.90;;;;;;5035802;28;20526;-91
2022/05/21 05:01:22;;;;;;;13.13;7.83;;;12.60;99.90;;;;;;5035638;28;20962;-89
2022/05/21 05:03:47;;;;;;;12.77;8.13;;;12.70;99.90;;;;;;5035820;28;20224;-90
2022/05/21 05:06:13;;;;;;;15.53;8.40;;;12.70;99.90;;;;;;5018227;28;20180;-87
2022/05/21 05:08:38;;;;;;;9.80;8.13;;;12.80;99.90;;;;;;5035746;28;20680;-91
2022/05/21 05:11:04;;;;;;;9.20;7.10;;;12.80;99.90;;;;;;5035518;28;20164;-90
2022/05/21 05:13:29;;;;;;;8.47;6.73;;;12.90;99.90;;;;;;5035595;28;20231;-84
2022/05/21 05:15:55;;;;;;;7.93;7.10;;;12.90;99.90;;;;;;5035572;28;20262;-90
2022/05/21 05:18:22;;;;;;;9.40;7.47;;;12.90;99.90;;;;;;5035133;28;20630;-84
2022/05/21 05:20:48;;;;;;;8.17;6.77;;;12.80;99.90;;;;;;5035312;28;20167;-83
2022/05/21 05:23:14;;;;;;;11.40;7.80;;;12.80;99.90;;;;;;5034968;28;20829;-87
2022/05/21 05:25:43;;;;;;;10.73;8.70;;;12.80;99.90;;;;;;5034948;28;20186;-84
2022/05/21 05:28:18;;;;;;;10.20;8.43;;;12.80;99.90;;;;;;5035225;28;20176;-91
2022/05/21 05:30:44;;;;;;;14.80;8.33;;;12.80;99.90;;;;;;5035024;28;20426;-84
2022/05/21 05:33:09;;;;;;;12.30;8.03;;;12.70;99.90;;;;;;5017569;28;20927;-93
2022/05/21 05:35:35;;;;;;;14.33;9.63;;;12.70;99.90;;;;;;5035041;28;20526;-87
2022/05/21 05:38:10;;;;;;;14.80;10.60;;;12.80;99.90;;;;;;5034900;28;20531;-88
2022/05/21 05:40:36;;;;;;;14.47;9.83;;;12.80;99.90;;;;;;5017160;28;20460;-90
2022/05/21 05:43:03;;;;;;;14.03;10.83;;;12.80;99.90;;;;;;5034902;28;20500;-91
2022/05/21 05:45:28;;;;;;;11.77;10.53;;;12.80;99.90;;;;;;5017447;28;20411;-93
2022/05/21 05:47:54;;;;;;;11.77;10.53;;;12.80;99.90;;;;;;5035038;28;20428;-92
2022/05/21 05:50:20;;;;;;;17.80;11.63;;;12.80;99.90;;;;;;5040084;28;20194;-94
2022/05/21 05:52:45;;;;;;;14.70;10.73;;;12.70;99.90;;;;;;5040020;28;20430;-93
2022/05/21 05:55:11;;;;;;;18.17;11.83;;;12.70;99.90;;;;;;5024973;28;20222;-90
2022/05/21 05:57:37;;;;;;;17.20;11.80;;;12.60;99.90;;;;;;5046588;28;20187;-94
2022/05/21 06:00:05;;;;;;;15.67;12.07;;;12.60;99.90;;;;;;5045002;28;20443;-93
2022/05/21 06:05:24;;;;;;;16.30;11.33;;;12.60;99.90;;;;;;5061516;28;20441;-94
2022/05/21 06:07:53;;;;;;;17.23;11.47;;;12.70;99.90;;;;;;5042324;28;20444;-94
2022/05/21 06:10:25;;;;;;;16.23;11.20;;;12.70;99.90;;;;;;5045489;28;20730;-94
2022/05/21 06:12:50;;;;;;;15.63;11.13;;;12.70;99.90;;;;;;5066380;28;20432;-93
2022/05/21 06:15:16;;;;;;;12.93;11.07;;;12.70;99.90;;;;;;5051764;28;20415;-94
2022/05/21 06:17:42;;;;;;;14.80;10.43;;;12.60;99.90;;;;;;5052049;23;20232;-92
2022/05/21 06:20:14;;;;;;;14.67;10.70;;;12.50;99.90;;;;;;5054163;28;20183;-94
2022/05/21 06:22:40;;;;;;;12.10;10.13;;;12.50;99.90;;;;;;5067057;28;20464;-93
2022/05/21 06:25:10;;;;;;;13.50;10.87;;;12.50;99.90;;;;;;5065919;28;20402;-91
2022/05/21 06:27:36;;;;;;;13.90;9.97;;;12.40;99.90;;;;;;5074460;28;20907;-87
2022/05/21 06:30:01;;;;;;;15.63;11.40;;;12.50;99.90;;;;;;5055085;28;20436;-94
2022/05/21 06:32:27;;;;;;;15.37;11.50;;;12.50;99.90;;;;;;5054895;28;20203;-92
2022/05/21 06:34:56;;;;;;;16.20;12.53;;;12.70;99.90;;;;;;5071586;28;20175;-85
2022/05/21 06:39:57;;;;;;;17.53;14.10;;;13.20;99.90;;;;;;5196874;22;20485;-85
2022/05/21 06:42:22;;;;;;;21.27;15.97;;;14.00;99.90;;;;;;5069060;28;20500;-86
2022/05/21 06:44:48;;;;;;;17.33;14.00;;;14.10;99.90;;;;;;5062029;28;20176;-92
2022/05/21 06:47:13;;;;;;;18.50;14.90;;;13.90;99.90;;;;;;5065227;28;20192;-95
2022/05/21 06:49:39;;;;;;;21.63;14.70;;;13.80;99.90;;;;;;5047100;28;20240;-94
2022/05/21 06:52:05;;;;;;;17.93;14.20;;;13.90;99.90;;;;;;5063712;28;20173;-93
2022/05/21 06:54:31;;;;;;;17.83;14.00;;;14.00;99.90;;;;;;5066554;28;20626;-95
2022/05/21 06:56:56;;;;;;;16.90;14.37;;;15.20;99.90;;;;;;5065854;28;20416;-94
2022/05/21 06:59:22;;;;;;;15.00;13.10;;;15.10;99.90;;;;;;5066031;28;20198;-93
2022/05/21 07:01:48;;;;;;;15.50;13.13;;;15.30;99.90;;;;;;5045855;28;20240;-91
2022/05/21 07:04:14;;;;;;;15.93;13.40;;;15.10;99.90;;;;;;5047743;28;20217;-93
2022/05/21 07:09:26;;;;;;;18.80;13.57;;;14.40;99.90;;;;;;5057783;28;20428;-92
2022/05/21 07:11:51;;;;;;;18.23;13.90;;;14.30;99.90;;;;;;5062287;28;20849;-92
2022/05/21 07:14:18;;;;;;;15.00;13.30;;;14.40;99.90;;;;;;5059142;28;20419;-91
2022/05/21 07:16:44;;;;;;;16.10;14.50;;;14.40;99.90;;;;;;5060462;28;20192;-93
2022/05/21 07:19:10;;;;;;;20.13;14.00;;;14.50;99.90;;;;;;5058507;28;20423;-90
2022/05/21 07:21:36;;;;;;;18.73;14.30;;;14.60;99.90;;;;;;5058021;28;20479;-94
2022/05/21 07:24:02;;;;;;;15.53;13.00;;;14.50;99.90;;;;;;5057428;28;20491;-90
2022/05/21 07:26:32;;;;;;;19.27;14.03;;;14.30;99.90;;;;;;5058936;28;20219;-89
2022/05/21 07:29:00;;;;;;;17.03;13.33;;;14.00;99.90;;;;;;5041074;28;20428;-93
2022/05/21 07:31:26;;;;;;;21.87;13.67;;;13.90;99.90;;;;;;5060855;28;20487;-91
2022/05/21 07:33:51;;;;;;;17.97;12.90;;;13.90;99.90;;;;;;5057892;28;20455;-93
2022/05/21 07:36:16;;;;;;;15.17;13.23;;;13.90;99.90;;;;;;5041343;28;20634;-92
2022/05/21 07:38:42;;;;;;;16.47;13.20;;;13.80;99.90;;;;;;5060274;28;20221;-88
2022/05/21 07:41:07;;;;;;;15.53;11.90;;;13.80;99.90;;;;;;5060116;28;20193;-91
2022/05/21 07:43:33;;;;;;;17.17;13.77;;;13.90;99.90;;;;;;5062160;28;20220;-94
2022/05/21 07:46:00;;;;;;;18.03;12.90;;;14.10;99.90;;;;;;5044773;28;20179;-92
2022/05/21 07:48:26;;;;;;;14.00;12.67;;;14.20;99.90;;;;;;5047330;28;20216;-94
2022/05/21 07:50:55;;;;;;;14.90;11.13;;;15.10;99.90;;;;;;5059092;28;20396;-95
2022/05/21 07:53:31;;;;;;;12.73;10.80;;;15.50;99.90;;;;;;5050292;28;20412;-93
2022/05/21 07:55:57;;;;;;;12.13;9.47;;;16.00;99.90;;;;;;5043930;28;20436;-95
2022/05/21 07:58:26;;;;;;;12.83;9.30;;;16.70;99.90;;;;;;5042054;28;20414;-96
2022/05/21 08:00:53;;;;;;;12.23;8.63;;;16.50;99.90;;;;;;5044213;28;20417;-93
2022/05/21 08:03:19;;;;;;;9.30;7.30;;;15.90;99.90;;;;;;5042127;28;20473;-94
2022/05/21 08:05:45;;;;;;;17.73;8.37;;;15.90;99.90;;;;;;5045658;28;20417;-93
2022/05/21 08:08:12;;;;;;;12.30;8.23;;;15.70;99.90;;;;;;5044240;28;20990;-94
2022/05/21 08:10:40;;;;;;;9.43;6.53;;;16.70;47.90;;;;;;5041702;28;20785;-96
2022/05/21 08:13:06;;;;;;;10.97;7.20;;;17.00;1.00;;;;;;5041019;28;20442;-95
2022/05/21 08:15:39;;;;;;;13.90;8.17;;;17.00;1.00;;;;;;5049457;28;20811;-96
2022/05/21 08:18:20;;;;;;;10.27;6.80;;;16.90;1.00;;;;;;5053512;28;20432;-96
2022/05/21 08:20:45;;;;;;;10.80;6.50;;;17.90;1.00;;;;;;5050899;28;20413;-95
2022/05/21 08:28:49;;;;;;;9.43;5.87;;;16.30;32.40;;;;;;5080647;22;20502;-96
2022/05/21 08:31:15;;;;;;;8.70;5.77;;;15.90;99.90;;;;;;5065726;23;20495;-93
2022/05/21 08:33:43;;;;;;;12.57;7.03;;;15.70;99.90;;;;;;5056141;28;20482;-96
2022/05/21 08:36:17;;;;;;;7.93;5.53;;;15.30;99.90;;;;;;5021811;28;20503;-94
2022/05/21 08:38:42;;;;;;;11.10;6.03;;;15.20;99.90;;;;;;5033412;28;20489;-95
2022/05/21 08:41:22;;;;;;;8.40;5.17;;;15.00;99.90;;;;;;5033168;28;20423;-96
2022/05/21 08:44:04;;;;;;;10.87;4.47;;;14.80;99.90;;;;;;5031594;28;20213;-94
2022/05/21 08:46:54;;;;;;;5.77;4.00;;;14.80;99.90;;;;;;5038817;28;20437;-95
2022/05/21 08:49:33;;;;;;;8.17;4.63;;;14.60;99.90;;;;;;5029445;28;20517;-96
2022/05/21 08:52:21;;;;;;;7.00;3.87;;;14.50;99.90;;;;;;5030720;28;20404;-93
2022/05/21 08:54:49;;;;;;;9.37;4.80;;;14.10;99.90;;;;;;5032328;28;20428;-96
2022/05/21 08:57:35;;;;;;;9.17;5.17;;;14.00;99.90;;;;;;5031898;28;20438;-96
2022/05/21 09:00:14;;;;;;;8.90;5.00;;;13.90;99.90;;;;;;5028047;28;20425;-91
2022/05/21 09:02:40;;;;;;;8.70;4.17;;;13.60;99.90;;;;;;5018613;28;20589;-94
2022/05/21 09:05:10;;;;;;;6.30;3.67;;;13.60;99.90;;;;;;5017686;28;20479;-91
2022/05/21 09:07:50;;;;;;;8.80;3.77;;;14.00;99.90;;;;;;5031985;28;20415;-91
2022/05/21 09:10:43;;;;;;;4.23;1.93;;;14.00;99.90;;;;;;5037340;28;20431;-89
2022/05/21 09:13:28;;;;;;;3.53;1.73;;;14.30;99.90;;;;;;5038541;28;20983;-92
2022/05/21 09:18:38;;;;;;;4.03;1.53;;;15.90;99.90;;;;;;5044479;28;20770;-89
2022/05/21 09:21:19;;;;;;;2.50;0.67;;;15.00;99.90;;;;;;5033420;28;20424;-90
2022/05/21 09:23:52;;;;;;;4.17;0.33;;;15.00;99.90;;;;;;5031965;28;20299;-91
2022/05/21 09:26:21;;;;;;;2.20;0.77;;;15.50;99.90;;;;;;5030131;28;20472;-91
2022/05/21 09:31:30;;;;;;;6.33;0.57;;;15.40;99.90;;;;;;5073031;28;20547;-91
2022/05/21 09:34:30;;;;;;;1.63;0.40;;;15.10;99.90;;;;;;5073867;28;20407;-89
2022/05/21 09:36:57;;;;;;;4.87;1.43;;;15.30;99.90;;;;;;5078319;28;20922;-87
2022/05/21 09:39:58;;;;;;;5.17;0.93;;;15.80;99.90;;;;;;5084990;28;20424;-95
2022/05/21 09:45:26;;;;;;;3.43;0.80;;;17.10;99.90;;;;;;5077501;28;20423;-96
2022/05/21 09:48:12;;;;;;;1.87;0.60;;;18.50;1.00;;;;;;5042107;28;20433;-89
2022/05/21 09:50:57;;;;;;;5.03;0.70;;;18.90;99.90;;;;;;5075992;28;20429;-92
2022/05/21 09:53:26;;;;;;;5.00;0.63;;;17.90;1.00;;;;;;5059561;28;20427;-94
2022/05/21 09:56:17;;;;;;;4.20;1.07;;;18.00;1.00;;;;;;5078965;28;20491;-94
2022/05/21 09:58:45;;;;;;;1.70;0.73;;;18.90;1.00;;;;;;5060739;28;20420;-92
2022/05/21 10:01:33;;;;;;;5.17;1.13;;;18.70;99.90;;;;;;5043948;28;20453;-93
2022/05/21 10:04:00;;;;;;;2.67;0.40;;;18.50;1.00;;;;;;5075231;28;20618;-91
2022/05/21 10:06:32;;;;;;;2.60;0.20;;;18.10;1.00;;;;;;5059508;28;20416;-92
2022/05/21 10:11:59;;;;;;;1.53;0.20;;;18.70;99.90;;;;;;5076179;28;20400;-94
2022/05/21 10:14:38;;;;;;;4.83;0.30;;;19.80;99.90;;;;;;5058522;28;20420;-90
2022/05/21 10:17:21;;;;;;;1.27;0.30;;;18.40;99.90;;;;;;5053144;28;20423;-95
2022/05/21 10:19:54;;;;;;;4.40;0.77;;;18.00;1.00;;;;;;5057280;28;20423;-93
2022/05/21 10:22:33;;;;;;;4.00;0.70;;;17.20;99.90;;;;;;5074605;28;20553;-92
2022/05/21 10:25:13;;;;;;;5.07;0.60;;;16.70;1.00;;;;;;5056703;28;20490;-91
2022/05/21 10:28:17;;;;;;;4.53;0.73;;;18.40;99.90;;;;;;5056410;28;20423;-92
2022/05/21 10:31:24;;;;;;;5.83;0.67;;;19.80;27.30;;;;;;5056053;28;20497;-92
2022/05/21 10:33:55;;;;;;;4.90;0.60;;;18.80;99.90;;;;;;5056508;28;20418;-92
2022/05/21 10:36:41;;;;;;;6.10;0.60;;;18.30;99.90;;;;;;5075047;28;20407;-92
2022/05/21 10:39:15;;;;;;;1.47;0.50;;;18.20;1.00;;;;;;5056788;28;20998;-93
2022/05/21 10:42:11;;;;;;;4.30;0.50;;;18.00;1.00;;;;;;5056392;28;20426;-89
2022/05/21 10:45:12;;;;;;;3.60;0.50;;;18.20;1.00;;;;;;5056355;28;20470;-96
2022/05/21 10:48:05;;;;;;;5.40;0.40;;;17.90;99.90;;;;;;5056151;28;20423;-91
2022/05/21 10:50:56;;;;;;;5.10;0.50;;;17.20;1.00;;;;;;5055232;28;20417;-90
2022/05/21 10:53:50;;;;;;;4.17;0.60;;;16.90;99.90;;;;;;5055936;28;20476;-89
2022/05/21 10:56:46;;;;;;;2.80;0.80;;;16.80;1.00;;;;;;5055495;28;20421;-89
2022/05/21 10:59:33;;;;;;;5.07;0.60;;;18.30;1.00;;;;;;5055196;28;20932;-89
2022/05/21 11:02:08;;;;;;;3.43;0.53;;;20.40;1.00;;;;;;5052125;28;20425;-89
2022/05/21 11:05:02;;;;;;;6.23;1.03;;;19.40;1.00;;;;;;5054613;28;20643;-88
2022/05/21 11:07:30;;;;;;;8.43;1.20;;;18.60;99.90;;;;;;5073633;28;20453;-89
2022/05/21 11:10:14;;;;;;;3.13;0.40;;;18.70;99.90;;;;;;5055520;28;20424;-88
2022/05/21 11:12:48;;;;;;;6.23;0.50;;;18.80;1.00;;;;;;5047185;28;20427;-88
2022/05/21 11:15:26;;;;;;;3.93;0.33;;;20.20;1.00;;;;;;5054891;28;20430;-89
2022/05/21 11:17:56;;;;;;;5.77;1.30;;;20.30;99.90;;;;;;5054984;28;20472;-92
2022/05/21 11:20:24;;;;;;;11.03;1.07;;;19.80;99.90;;;;;;5054714;28;20421;-89
2022/05/21 11:23:12;;;;;;;4.57;0.83;;;20.40;99.90;;;;;;5072428;28;20541;-91
2022/05/21 11:25:46;;;;;;;4.60;0.50;;;22.00;99.90;;;;;;5052167;28;20423;-91
2022/05/21 11:28:37;;;;;;;4.67;0.60;;;21.90;99.90;;;;;;5054723;28;20887;-92
2022/05/21 11:31:13;;;;;;;2.77;0.40;;;21.90;99.90;;;;;;5072090;28;20454;-88
2022/05/21 11:39:17;;;;;;;4.00;0.43;;;21.70;99.90;;;;;;5071261;28;20469;-94
2022/05/21 11:42:27;;;;;;;7.30;1.20;;;22.10;99.90;;;;;;5070340;28;20430;-90
2022/05/21 11:45:11;;;;;;;4.50;0.40;;;22.10;99.90;;;;;;4990912;28;20563;-91
2022/05/21 11:47:40;;;;;;;1.67;0.30;;;22.10;99.90;;;;;;4990855;28;20429;-92
2022/05/21 11:50:24;;;;;;;4.60;1.07;;;22.60;99.90;;;;;;5026334;28;20441;-90
2022/05/21 11:52:56;;;;;;;2.93;0.70;;;22.90;99.90;;;;;;5053391;28;20411;-93
2022/05/21 11:55:37;;;;;;;4.40;0.83;;;22.40;99.90;;;;;;5053799;28;20506;-92
2022/05/21 11:58:05;;;;;;;2.83;0.40;;;22.40;99.90;;;;;;5074751;28;20452;-93
2022/05/21 12:00:33;;;;;;;3.23;0.40;;;22.90;99.90;;;;;;5075239;28;20410;-90
2022/05/21 12:03:10;;;;;;;4.23;0.50;;;23.10;99.90;;;;;;5066620;28;20524;-89
2022/05/21 12:05:37;;;;;;;3.67;0.50;;;23.40;99.90;;;;;;5057670;28;20415;-91
2022/05/21 12:08:23;;;;;;;3.40;0.67;;;22.00;99.90;;;;;;5057615;28;20410;-88
2022/05/21 12:11:27;;;;;;;3.07;0.60;;;21.70;99.90;;;;;;5048458;28;20513;-94
2022/05/21 12:14:12;;;;;;;2.63;0.70;;;22.10;99.90;;;;;;5071755;28;20423;-90
2022/05/21 12:16:38;;;;;;;5.30;0.70;;;22.40;99.90;;;;;;5054598;28;20407;-90
2022/05/21 12:19:07;;;;;;;3.23;0.83;;;22.70;99.90;;;;;;5056439;28;20515;-91
2022/05/21 12:21:43;;;;;;;4.33;0.40;;;21.90;99.90;;;;;;5058155;28;20169;-94
2022/05/21 12:24:25;;;;;;;3.97;0.90;;;20.50;99.90;;;;;;5055375;28;20835;-92
2022/05/21 12:27:06;;;;;;;2.70;1.30;;;20.60;99.90;;;;;;5074156;28;20388;-91
2022/05/21 12:29:42;;;;;;;5.23;1.13;;;21.80;99.90;;;;;;5057146;28;20517;-90
2022/05/21 12:32:26;;;;;;;1.60;0.30;;;22.10;99.90;;;;;;5073171;28;20437;-90
2022/05/21 12:35:29;;;;;;;4.10;0.60;;;21.80;99.90;;;;;;5058536;28;20426;-91
2022/05/21 12:38:10;;;;;;;2.23;0.50;;;22.70;99.90;;;;;;5058453;28;20415;-92
2022/05/21 12:40:58;;;;;;;4.47;0.73;;;23.10;99.90;;;;;;5055237;28;20498;-90
2022/05/21 12:43:24;;;;;;;3.27;0.30;;;22.90;86.50;;;;;;5063152;28;20497;-87
2022/05/21 12:45:52;;;;;;;2.17;0.27;;;23.00;90.70;;;;;;5073187;28;20447;-89
2022/05/21 12:48:34;;;;;;;3.37;0.43;;;22.70;77.00;;;;;;5069344;28;20454;-91
2022/05/21 12:51:03;;;;;;;4.93;0.50;;;23.00;86.40;;;;;;5077552;28;20399;-96
2022/05/21 12:53:46;;;;;;;3.07;0.60;;;22.50;78.90;;;;;;5087143;28;20887;-95
2022/05/21 12:56:19;;;;;;;5.30;0.83;;;22.30;78.80;;;;;;5079268;28;20410;-93
2022/05/21 12:58:45;;;;;;;4.93;0.63;;;21.80;80.60;;;;;;5062756;28;20424;-93
2022/05/21 13:01:24;;;;;;;3.20;0.60;;;21.30;81.80;;;;;;5078816;28;20422;-95
2022/05/21 13:03:49;;;;;;;2.53;0.70;;;21.00;91.70;;;;;;5060058;28;20517;-94
2022/05/21 13:06:23;;;;;;;3.63;0.40;;;22.10;99.90;;;;;;5060765;28;20408;-95
2022/05/21 13:08:52;;;;;;;2.60;0.60;;;22.50;98.30;;;;;;5060631;28;20185;-91
2022/05/21 13:11:21;;;;;;;3.73;0.50;;;22.10;87.60;;;;;;5039722;28;20416;-95
2022/05/21 13:14:01;;;;;;;2.63;0.50;;;21.10;87.80;;;;;;5048925;28;20442;-93
2022/05/21 13:16:27;;;;;;;2.00;0.50;;;20.30;91.30;;;;;;5056689;28;20415;-94
2022/05/21 13:19:28;;;;;;;2.40;0.53;;;21.40;96.70;;;;;;5059384;28;20427;-93
2022/05/21 13:22:12;;;;;;;3.43;0.50;;;21.70;91.10;;;;;;5051079;28;20423;-88
2022/05/21 13:24:47;;;;;;;4.17;0.50;;;22.00;89.10;;;;;;5073867;28;20908;-92
2022/05/21 13:27:16;;;;;;;2.20;0.43;;;22.40;88.50;;;;;;5057522;28;20818;-90
2022/05/21 13:29:42;;;;;;;3.33;0.60;;;21.70;74.00;;;;;;5058603;28;20473;-93
2022/05/21 13:32:31;;;;;;;2.80;0.50;;;21.80;74.00;;;;;;5059516;28;20411;-94
2022/05/21 13:34:59;;;;;;;4.27;0.50;;;21.50;64.40;;;;;;5059745;28;20411;-95
2022/05/21 13:37:32;;;;;;;3.33;0.37;;;21.20;77.80;;;;;;5078369;28;20473;-93
2022/05/21 13:40:17;;;;;;;1.90;0.50;;;21.40;84.90;;;;;;5061049;28;20423;-94
2022/05/21 13:42:44;;;;;;;4.13;0.53;;;21.60;85.50;;;;;;5064603;28;20927;-92
2022/05/21 13:45:33;;;;;;;2.17;0.80;;;21.80;92.40;;;;;;5061291;28;20425;-92
2022/05/21 13:48:33;;;;;;;3.60;0.60;;;21.60;76.50;;;;;;5060278;28;20474;-92